Volkan Akgun

Chief Scout - Basaksehir
20 Feb 2028
Sunday
Process

Personality

Adaptability (9) Ambition (12) Controversy (4) Loyalty (13) Pressure (14) Professionalism (1) Sportsmanship (19) Temperament (12)

Profile

Coaching Style Democratic
License Continental C
Determination 8
Man Management 14
Motivating 6
Discipline 9
Job Satisfaction
100%
Fatigue
0%
Role Chief Scout
Wage 25.4K p/w
Contract 14.03.2030

Performance

Behaviour Good
Training Effectiveness
48%
Player Development
50%
Injury Prevention
60%
Tactical Implementation
55%

Recent Events

Attended a recruitment meeting now
Recommended a transfer target now
Recommended a transfer target now
Recommended a transfer target now
Recommended a transfer target 7d ago
Recommended a transfer target 7d ago
Recommended a transfer target 7d ago
Observed a match 7d ago

Currently Monitoring

146
Player Club Status Ability Confidence Watched Last Observed Latest Vote
Trey Nyoni Rotherham United Active 137 / 147 40% 3 02.02.2028 -
Izan Merino Málaga Active 130 / 138 40% 1 02.02.2028 -
Sampson Dweh Young Boys Negotiating 133 / 134 66% 1 17.01.2028 Approve
Esquerdinha Shrewsbury Town Active 128 / 137 40% 1 17.01.2028 -
Ben Broggio Grimsby Town Active 120 / 125 40% 1 17.01.2028 -
Siyabonga Mabena Chippa United Active 122 / 119 40% 1 11.01.2028 -
Nicolás Fernández Mercau Independiente Active 134 / 134 67% 1 01.01.2028 Approve
Igoh Ogbu Porto Active 146 / 146 66% 1 01.01.2028 Approve
Saman Rezaeian Gostaresh Foulad Active 123 / 110 40% 1 31.12.2027 -
José Correa Deportivo Tachira Active 91 / 92 40% 1 31.08.2027 -
Enzo Cabrera Danubio Active 102 / 115 40% 1 26.08.2027 -
Santiago Castro AS Roma Active 145 / 147 40% 1 16.08.2027 -
Dom Ballard Leyton Orient Active 125 / 138 40% 2 09.08.2027 -
Dale Taylor Blackpool Active 107 / 131 40% 1 09.08.2027 -
Gonzalo Fulham Active 136 / 162 40% 1 27.07.2027 -
Pablo Felipe West Ham United Active 133 / 142 40% 1 26.07.2027 -
Juanlu Bournemouth Active 154 / 163 40% 2 20.07.2027 -
Othmane Maamma Watford Active 132 / 124 40% 7 20.07.2027 -
Václav Černý Besiktas Active 132 / 142 40% 1 05.07.2027 Needs More Info
Joel McGregor Swindon Town Active 108 / 111 40% 1 31.05.2027 -
Kwadwo Baah Watford Active 115 / 140 40% 6 29.05.2027 -
Christos Mouzakitis Hull City Active 125 / 129 40% 1 29.05.2027 -
Jack McGlynn Stoke City Active 138 / 127 40% 3 26.05.2027 -
Ryan Sessegnon Fulham Active 148 / 138 40% 4 25.05.2027 -
Isaac Price West Bromwich Albion Active 118 / 119 40% 2 25.05.2027 -
Jack Rudoni Coventry City Active 139 / 145 40% 3 24.05.2027 -
Romano Schmid Frosinone Active 142 / 130 40% 1 23.05.2027 -
Mohamed Belloumi Hull City Active 133 / 124 40% 1 23.05.2027 -
Manor Solomon West Ham United Active 131 / 138 40% 4 22.05.2027 -
Tom Fellows Southampton Active 141 / 138 40% 4 21.05.2027 -
Amine Adli Bournemouth Active 143 / 155 40% 5 21.05.2027 -
Caleb Yirenkyi Coventry City Active 135 / 141 40% 3 19.05.2027 -
Derry Murkin Derby County Active 115 / 120 40% 1 19.05.2027 -
Jan Virgili Club Brugge Active 145 / 139 40% 1 17.05.2027 -
Finn Azaz Southampton Active 130 / 115 40% 6 13.05.2027 -
Jason Knight Bristol City Active 130 / 132 40% 4 11.05.2027 -
Sascha Britschgi Padova Active 120 / 116 40% 1 11.05.2027 -
Tyrese Campbell Sheffield United Active 138 / 128 40% 4 09.05.2027 -
Ronald Swansea City Active 116 / 119 40% 2 09.05.2027 -
Sidny Lopes Cabral Trabzonspor Active 142 / 132 40% 3 07.05.2027 -
Rodrigo Gomes Wolverhampton Active 137 / 131 40% 1 06.05.2027 -
Morgan Whittaker Middlesbrough Active 141 / 125 40% 5 03.05.2027 -
Giorgi Chakvetadze Watford Active 116 / 137 40% 4 02.05.2027 -
Nicolò Zaniolo Udinese Active 158 / 152 40% 1 02.05.2027 -
Kamarni Ryan Burton Albion Active 92 / 92 40% 1 02.05.2027 -
Mfundo Vilakazi Kaizer Chiefs Active 103 / 130 40% 1 02.05.2027 -
Ethan Williams Peterborough United Active 104 / 126 40% 3 30.04.2027 -
Cyriaque Irié VfL Wolfsburg Active 114 / 132 40% 2 30.04.2027 -
Jesús Rodríguez Como Active 157 / 139 40% 1 30.04.2027 -
Finley McAllister Grimsby Town Active 99 / 104 40% 1 28.04.2027 -
Pietro Reggiori Pro Patria Active 76 / 109 40% 1 28.04.2027 -
Shea Charles Southampton Active 136 / 131 40% 1 26.04.2027 -
Scott Twine Bristol City Active 121 / 129 40% 3 24.04.2027 -
Nicolò Cambiaghi Bologna Active 140 / 147 40% 1 23.04.2027 -
Milan van Ewijk Mansfield Town Active 124 / 140 40% 3 18.04.2027 -
Adrien Truffert Bournemouth Active 162 / 163 40% 4 17.04.2027 -
Ethan Galbraith Swansea City Active 119 / 131 40% 1 15.04.2027 -
Calum Agius Crewe Alexandra Active 104 / 93 40% 1 13.04.2027 -
Orkun Kökçü Besiktas Active 151 / 153 40% 1 11.04.2027 -
Leo Castledine Middlesbrough Active 127 / 139 40% 2 08.04.2027 -
Rocco Vata Watford Active 124 / 112 40% 1 07.04.2027 -
Matías Gómez Granada Active 121 / 133 40% 2 05.04.2027 -
Dávid Strelec Middlesbrough Active 137 / 127 40% 1 05.04.2027 -
Ilyas Ansah Hull City Active 124 / 127 40% 1 02.04.2027 -
Ahmed Kutucu Konyaspor Active 115 / 121 40% 4 01.04.2027 -
Aral Şimşir Trabzonspor Active 122 / 121 40% 1 28.03.2027 -
James Dornelly Peterborough United Active 95 / 102 40% 2 27.03.2027 -
Carlos Alcaraz Everton Active 133 / 134 40% 5 25.03.2027 -
Carlos Vicente Birmingham Active 129 / 134 40% 3 22.03.2027 -
Ronwen Phiri Platinum Stars Active 94 / 91 40% 1 22.03.2027 -
Shea Lacey Wolverhampton Active 120 / 125 40% 1 21.03.2027 -
Marquinhos Spartak Moscow Active 126 / 123 40% 2 18.03.2027 -
Florentino Luís Ipswich Town Active 132 / 133 40% 4 14.03.2027 -
Wilson Isidor Sunderland Active 141 / 136 40% 1 14.03.2027 -
Hélio Varela Maccabi Tel Aviv Active 112 / 133 40% 1 13.03.2027 -
Marcelo Allende Mamelodi Sundowns Active 131 / 119 40% 5 12.03.2027 -
Oscar Schwartau Norwich City Active 133 / 142 40% 1 12.03.2027 -
Bamba Dieng Crvena Zvezda Active 133 / 129 40% 5 11.03.2027 -
Ilja Ishkov Ural Active 95 / 95 40% 1 07.03.2027 -
Quinten Timber Crystal Palace Active 146 / 151 40% 3 04.03.2027 -
Yankuba Minteh Brighton Active 151 / 145 40% 1 27.02.2027 -
Zeki Amdouni Burnley Active 140 / 125 40% 1 24.02.2027 -
Assane Diao Lazio Active 153 / 155 40% 1 18.02.2027 -
Matt O'Riley Brighton Active 161 / 135 40% 1 15.02.2027 -
Kasey McAteer Ipswich Town Active 117 / 127 40% 1 07.02.2027 -
Joe Gelhardt Hull City Active 118 / 143 40% 1 06.02.2027 -
Jhon Jhon Zenit Active 123 / 131 40% 1 03.02.2027 -
Ali Ahmed Norwich City Active 127 / 112 40% 1 30.01.2027 -
Ianis Hagi Alanyaspor Active 128 / 127 58% 1 25.01.2027 Approve
Esequiel Barco Spartak Moscow Active 133 / 145 40% 2 24.01.2027 -
Kristoffer Lund Birmingham Active 116 / 126 40% 1 23.01.2027 -
Christian Krasnodar Active 122 / 128 40% 3 16.01.2027 -
Tyler Adams Bournemouth Active 154 / 144 40% 1 15.01.2027 -
Crysencio Summerville Al-Hilal Active 134 / 138 40% 1 13.01.2027 -
Derensili Sanches Fernandes Huddersfield Town Active 113 / 110 40% 1 08.01.2027 -
Sorba Thomas Stoke City Active 149 / 120 40% 1 04.01.2027 -
Aaron Hickey Brentford Active 141 / 149 40% 1 01.01.2027 -
Luis Vázquez Birmingham Active 126 / 130 40% 1 31.12.2026 -
Luciano Gondou CSKA Moscow Active 126 / 119 40% 1 31.12.2026 -
Lukáš Červ Viktoria Plzen Active 138 / 126 40% 2 30.12.2026 -
Max Bird Birmingham Active 120 / 125 40% 2 29.12.2026 -
Dara O'Shea Ipswich Town Active 133 / 131 40% 3 27.12.2026 -
Jacques Ekomié Wrexham Active 139 / 127 40% 1 27.12.2026 -
Adam Wharton Crystal Palace Active 159 / 162 40% 2 26.12.2026 -
Noah Sadiki Sunderland Active 157 / 150 40% 1 26.12.2026 -
Japhet Tanganga Sheffield United Active 146 / 138 40% 1 25.12.2026 -
Tiago Djaló Besiktas Active 143 / 138 40% 4 21.12.2026 -
Mattéo Guendouzi Fenerbahce Active 145 / 148 40% 5 19.12.2026 -
Carlos Augusto Inter Active 144 / 154 40% 2 18.12.2026 -
Murillo Nottingham Forest Active 144 / 151 40% 1 18.12.2026 -
Anel Ahmedhodžić Burnley Active 137 / 145 40% 3 16.12.2026 -
Yehor Yarmoliuk Brentford Active 151 / 140 40% 2 16.12.2026 -
Toby Collyer West Bromwich Albion Active 122 / 135 40% 1 15.12.2026 -
Oumar Solet Udinese Active 162 / 154 40% 1 15.12.2026 -
Bobby Thomas Coventry City Active 122 / 141 40% 3 13.12.2026 -
Nathan Collins Brentford Active 153 / 147 40% 1 12.12.2026 -
Harry Clarke Preston Active 119 / 126 40% 2 09.12.2026 -
El Hadji Malick Diouf Brentford Active 127 / 148 40% 1 08.12.2026 -
Leif Davis Ipswich Town Active 143 / 141 40% 1 05.12.2026 -
James Garner Everton Active 140 / 158 40% 1 05.12.2026 -
Tim Jabol-Folcarelli Kayserispor Active 139 / 121 40% 2 29.11.2026 -
Gabriel Sara Galatasaray Active 132 / 149 40% 2 29.11.2026 -
André Wolverhampton Active 136 / 130 40% 1 28.11.2026 -
Welington Southampton Active 126 / 132 40% 1 26.11.2026 -
Oliver Skipp Leicester City Active 117 / 143 40% 1 24.11.2026 -
Mats Wieffer Brighton Active 143 / 158 40% 1 20.11.2026 -
Rayan Aït-Nouri Manchester City Active 142 / 140 40% 1 19.11.2026 -
Nazareno Colombo Racing Club Active 126 / 131 40% 2 12.11.2026 -
Jayden Oosterwolde Fenerbahce Active 148 / 134 40% 2 10.11.2026 -
Rahim Ibrahim Slovan Bratislava Active 119 / 127 40% 1 10.11.2026 -
Volodymyr Brazhko Dynamo Kyiv Active 133 / 127 40% 1 07.11.2026 -
Francisco Álvarez Argentinos Juniors Active 123 / 129 40% 2 02.11.2026 -
Wagner Pina Trabzonspor Active 124 / 134 40% 1 01.11.2026 -
Juan Manuel Sanabria Real Salt Lake Active 119 / 137 40% 1 31.10.2026 -
Luis Binks Brondby Active 121 / 127 40% 1 31.10.2026 -
César Ibáñez Huracán Active 119 / 129 40% 1 30.10.2026 -
Vicente Poggi Godoy Cruz Active 123 / 123 40% 1 25.10.2026 -
Samú Al-Nassr Active 132 / 151 40% 1 25.10.2026 -
Mohamed Simakan Al-Nassr Active 144 / 146 40% 1 23.10.2026 -
Ayrton Costa Boca Juniors Active 124 / 122 40% 2 22.10.2026 -
Damián Fernández Defensa y Justicia Active 128 / 123 40% 1 21.10.2026 -
Rubens Dinamo Moscow Active 136 / 143 40% 1 17.10.2026 -
Mattia Zanotti Lugano Active 122 / 120 40% 1 14.10.2026 -
Facundo Mura Inter Miami CF Active 128 / 125 40% 1 14.10.2026 -
Gustavo Mantuan Zenit Active 147 / 119 40% 1 09.10.2026 -
Guilherme Konyaspor Active 113 / 116 58% 1 10.08.2026 -